Time;durP1;ratioP1;P1;durP2;ratioP2;P2;SDS_P1;SDS_P2;PMS_P1;PMS_P2;Temp;Humidity;BMP_temperature;BMP_pressure;BME280_temperature;BME280_humidity;BME280_pressure;Samples;Min_cycle;Max_cycle;Signal;HPM_P1;HPM_P2
2022/08/17 00:01:32;;;;;;;;;7.00;7.00;;;;;;;;5076078;27;45390;-71
2022/08/17 00:03:57;;;;;;;;;5.33;5.33;;;;;;;;5076476;27;46099;-72
2022/08/17 00:06:24;;;;;;;;;6.33;5.67;;;;;;;;5076202;28;45518;-72
2022/08/17 00:08:54;;;;;;;;;5.33;5.33;;;;;;;;5076272;28;45291;-72
2022/08/17 00:11:22;;;;;;;;;5.33;4.33;;;;;;;;5075880;28;45378;-72
2022/08/17 00:13:49;;;;;;;;;5.33;5.00;;;;;;;;5075910;27;45382;-72
2022/08/17 00:16:17;;;;;;;;;6.00;6.00;;;;;;;;5075851;27;45312;-72
2022/08/17 00:18:42;;;;;;;;;6.00;4.67;;;;;;;;5076231;27;45359;-72
2022/08/17 00:21:09;;;;;;;;;3.33;3.33;;;;;;;;5075897;27;45374;-72
2022/08/17 00:23:34;;;;;;;;;4.00;4.00;;;;;;;;5075857;27;46188;-72
2022/08/17 00:26:00;;;;;;;;;5.33;5.00;;;;;;;;5075730;27;45443;-72
2022/08/17 00:28:26;;;;;;;;;7.33;7.00;;;;;;;;5076233;28;45482;-72
2022/08/17 00:30:51;;;;;;;;;5.00;5.00;;;;;;;;5060996;28;45495;-72
2022/08/17 00:33:18;;;;;;;;;6.00;6.00;;;;;;;;5075641;27;46033;-72
2022/08/17 00:35:45;;;;;;;;;6.00;6.00;;;;;;;;5074756;27;45251;-72
2022/08/17 00:38:11;;;;;;;;;6.00;4.33;;;;;;;;5061396;28;45316;-72
2022/08/17 00:40:47;;;;;;;;;4.33;4.33;;;;;;;;5075668;28;45398;-72
2022/08/17 00:43:15;;;;;;;;;3.33;3.33;;;;;;;;5075139;27;47052;-72
2022/08/17 00:45:41;;;;;;;;;3.00;3.00;;;;;;;;5075215;28;45400;-72
2022/08/17 00:48:06;;;;;;;;;5.33;5.33;;;;;;;;5075670;27;45390;-71
2022/08/17 00:50:32;;;;;;;;;7.00;5.67;;;;;;;;5075759;28;45425;-72
2022/08/17 00:52:57;;;;;;;;;4.33;4.33;;;;;;;;5074949;28;47234;-72
2022/08/17 00:55:24;;;;;;;;;6.00;6.00;;;;;;;;5075047;27;45348;-72
2022/08/17 00:57:52;;;;;;;;;4.00;4.00;;;;;;;;5075455;28;45514;-72
2022/08/17 01:00:25;;;;;;;;;5.67;5.67;;;;;;;;5075468;28;45239;-72
2022/08/17 01:02:53;;;;;;;;;5.67;4.00;;;;;;;;5090176;27;47399;-72
2022/08/17 01:05:21;;;;;;;;;4.00;4.00;;;;;;;;5095751;27;45413;-72
2022/08/17 01:07:48;;;;;;;;;5.67;5.67;;;;;;;;5095828;27;45357;-72
2022/08/17 01:10:14;;;;;;;;;4.33;4.33;;;;;;;;5093781;27;45577;-72
2022/08/17 01:12:39;;;;;;;;;4.67;4.67;;;;;;;;5095404;27;46272;-72
2022/08/17 01:15:05;;;;;;;;;5.00;4.00;;;;;;;;5095500;27;45486;-71
2022/08/17 01:17:30;;;;;;;;;6.33;6.33;;;;;;;;5096010;27;45300;-72
2022/08/17 01:19:56;;;;;;;;;5.00;5.00;;;;;;;;5095765;27;45442;-72
2022/08/17 01:22:22;;;;;;;;;6.00;6.00;;;;;;;;5093858;27;46296;-72
2022/08/17 01:24:50;;;;;;;;;4.33;4.33;;;;;;;;5095656;27;45366;-71
2022/08/17 01:27:16;;;;;;;;;6.00;6.00;;;;;;;;5095373;27;45416;-72
2022/08/17 01:29:44;;;;;;;;;4.67;4.67;;;;;;;;5095839;27;45293;-72
2022/08/17 01:32:09;;;;;;;;;4.67;4.67;;;;;;;;5095402;27;46443;-72
2022/08/17 01:34:34;;;;;;;;;4.00;4.00;;;;;;;;5095537;27;45339;-72
2022/08/17 01:37:00;;;;;;;;;4.00;4.00;;;;;;;;5095157;27;45472;-72
2022/08/17 01:39:25;;;;;;;;;5.00;5.00;;;;;;;;5095119;27;45444;-72
2022/08/17 01:41:52;;;;;;;;;5.00;5.00;;;;;;;;5095537;27;46212;-72
2022/08/17 01:44:18;;;;;;;;;5.00;5.00;;;;;;;;5095265;27;45516;-72
2022/08/17 01:46:43;;;;;;;;;5.33;4.33;;;;;;;;5097632;27;45350;-72
2022/08/17 01:49:10;;;;;;;;;5.33;5.33;;;;;;;;5098696;27;45410;-72
2022/08/17 01:51:35;;;;;;;;;4.33;4.33;;;;;;;;5098375;27;45455;-72
2022/08/17 01:54:04;;;;;;;;;6.33;5.00;;;;;;;;5098281;27;45490;-72
2022/08/17 01:56:31;;;;;;;;;6.00;6.00;;;;;;;;5098645;27;45503;-72
2022/08/17 01:58:57;;;;;;;;;5.00;5.00;;;;;;;;5098451;27;45166;-72
2022/08/17 02:01:24;;;;;;;;;6.67;4.33;;;;;;;;5095080;27;46506;-72
2022/08/17 02:03:49;;;;;;;;;6.33;5.33;;;;;;;;5078175;27;45523;-72
2022/08/17 02:06:14;;;;;;;;;5.33;4.67;;;;;;;;5078323;27;45383;-72
2022/08/17 02:08:40;;;;;;;;;4.33;4.33;;;;;;;;5077691;27;45470;-72
2022/08/17 02:11:07;;;;;;;;;6.00;6.00;;;;;;;;5078039;28;46309;-72
2022/08/17 02:13:33;;;;;;;;;5.33;5.33;;;;;;;;5077818;27;45517;-72
2022/08/17 02:15:59;;;;;;;;;7.00;6.00;;;;;;;;5077792;27;45426;-72
2022/08/17 02:18:25;;;;;;;;;6.67;6.00;;;;;;;;5077854;27;45293;-73
2022/08/17 02:20:51;;;;;;;;;5.00;5.00;;;;;;;;5077861;27;47344;-72
2022/08/17 02:23:16;;;;;;;;;4.33;4.33;;;;;;;;5077311;27;45292;-72
2022/08/17 02:25:43;;;;;;;;;5.00;5.00;;;;;;;;5059256;28;45320;-72
2022/08/17 02:28:09;;;;;;;;;3.67;3.67;;;;;;;;5078001;27;45497;-72
2022/08/17 02:30:34;;;;;;;;;4.00;4.00;;;;;;;;5077550;27;46216;-72
2022/08/17 02:33:00;;;;;;;;;3.67;3.67;;;;;;;;5077413;27;45357;-72
2022/08/17 02:35:25;;;;;;;;;5.00;5.00;;;;;;;;5077267;27;45849;-72
2022/08/17 02:37:50;;;;;;;;;5.33;5.33;;;;;;;;5077527;27;45427;-72
2022/08/17 02:40:15;;;;;;;;;5.33;5.00;;;;;;;;5077796;28;45435;-72
2022/08/17 02:42:42;;;;;;;;;4.67;4.67;;;;;;;;5077912;27;45425;-72
2022/08/17 02:45:14;;;;;;;;;5.00;5.00;;;;;;;;5077642;27;45561;-72
2022/08/17 02:47:40;;;;;;;;;5.00;4.33;;;;;;;;5077253;27;45461;-72
2022/08/17 02:50:07;;;;;;;;;6.67;5.67;;;;;;;;5077386;27;45486;-72
2022/08/17 02:52:36;;;;;;;;;6.33;4.33;;;;;;;;5077277;28;45351;-72
2022/08/17 02:55:03;;;;;;;;;5.00;5.00;;;;;;;;5077133;28;45345;-72
2022/08/17 02:57:29;;;;;;;;;3.33;3.33;;;;;;;;5076224;27;45312;-72
2022/08/17 02:59:54;;;;;;;;;4.33;3.33;;;;;;;;5077165;27;45617;-72
2022/08/17 03:02:19;;;;;;;;;3.67;3.67;;;;;;;;5077339;27;45351;-72
2022/08/17 03:04:44;;;;;;;;;5.33;5.33;;;;;;;;5076786;27;45446;-72
2022/08/17 03:07:10;;;;;;;;;3.67;3.67;;;;;;;;5076914;28;45467;-72
2022/08/17 03:09:35;;;;;;;;;5.67;4.33;;;;;;;;5077104;27;46190;-72
2022/08/17 03:12:05;;;;;;;;;5.33;5.33;;;;;;;;5077041;27;45289;-72
2022/08/17 03:14:31;;;;;;;;;5.00;5.00;;;;;;;;5059087;27;45459;-72
2022/08/17 03:16:56;;;;;;;;;5.67;5.67;;;;;;;;5076851;27;45558;-72
2022/08/17 03:19:21;;;;;;;;;5.00;5.00;;;;;;;;5076516;28;46107;-72
2022/08/17 03:21:46;;;;;;;;;4.00;4.00;;;;;;;;5076746;27;45132;-72
2022/08/17 03:24:14;;;;;;;;;5.00;5.00;;;;;;;;5077056;27;45252;-72
2022/08/17 03:26:39;;;;;;;;;5.00;5.00;;;;;;;;5076764;27;45444;-72
2022/08/17 03:29:04;;;;;;;;;5.33;5.33;;;;;;;;5076531;27;46386;-72
2022/08/17 03:31:30;;;;;;;;;4.33;4.33;;;;;;;;5076973;27;45354;-72
2022/08/17 03:33:56;;;;;;;;;7.67;5.67;;;;;;;;5076167;27;45823;-72
2022/08/17 03:36:21;;;;;;;;;5.67;5.33;;;;;;;;5076307;27;45450;-72
2022/08/17 03:38:46;;;;;;;;;4.67;4.67;;;;;;;;5076787;27;47242;-72
2022/08/17 03:41:12;;;;;;;;;5.67;4.67;;;;;;;;5076916;27;45392;-72
2022/08/17 03:43:37;;;;;;;;;5.00;5.00;;;;;;;;5076914;27;45494;-73
2022/08/17 03:56:58;;;;;;;;;5.33;5.33;;;;;;;;5071242;27;45638;-72
2022/08/17 03:59:23;;;;;;;;;5.33;5.33;;;;;;;;5075973;27;47075;-72
2022/08/17 04:01:51;;;;;;;;;5.33;5.33;;;;;;;;5076181;27;45421;-72
2022/08/17 04:04:16;;;;;;;;;5.67;5.67;;;;;;;;5075769;28;45434;-72
2022/08/17 04:06:41;;;;;;;;;4.00;4.00;;;;;;;;5075760;27;45379;-72
2022/08/17 04:09:07;;;;;;;;;5.00;5.00;;;;;;;;5075991;28;46015;-72
2022/08/17 04:11:33;;;;;;;;;6.33;6.33;;;;;;;;5076073;27;45347;-72
2022/08/17 04:13:58;;;;;;;;;5.00;5.00;;;;;;;;5076323;27;45274;-72
2022/08/17 04:16:24;;;;;;;;;5.33;5.33;;;;;;;;5057793;28;45869;-72
2022/08/17 04:18:50;;;;;;;;;4.33;4.33;;;;;;;;5075629;27;45673;-72
2022/08/17 04:21:15;;;;;;;;;7.00;6.00;;;;;;;;5075856;27;45506;-72
2022/08/17 04:23:40;;;;;;;;;4.33;4.33;;;;;;;;5075967;28;45373;-72
2022/08/17 04:26:06;;;;;;;;;4.33;4.33;;;;;;;;5057694;28;45363;-73
2022/08/17 04:28:31;;;;;;;;;6.33;6.33;;;;;;;;5075781;27;46437;-72
2022/08/17 04:30:57;;;;;;;;;5.00;5.00;;;;;;;;5075952;27;45270;-72
2022/08/17 04:33:23;;;;;;;;;6.67;4.67;;;;;;;;5075807;28;45344;-71
2022/08/17 04:35:51;;;;;;;;;4.00;4.00;;;;;;;;5075361;27;45655;-72
2022/08/17 04:38:18;;;;;;;;;4.67;4.67;;;;;;;;5075634;27;46212;-72
2022/08/17 04:43:28;;;;;;;;;6.00;5.00;;;;;;;;5063050;27;45317;-72
2022/08/17 04:45:55;;;;;;;;;4.67;4.67;;;;;;;;5075802;28;45361;-72
2022/08/17 04:48:20;;;;;;;;;4.33;4.33;;;;;;;;5074814;28;45309;-71
2022/08/17 04:50:47;;;;;;;;;4.00;4.00;;;;;;;;5075734;27;45375;-72
2022/08/17 04:53:13;;;;;;;;;6.00;5.33;;;;;;;;5075501;28;45447;-71
2022/08/17 04:55:38;;;;;;;;;4.33;4.33;;;;;;;;5075219;28;45468;-71
2022/08/17 04:58:04;;;;;;;;;4.00;4.00;;;;;;;;5075359;27;46978;-71
2022/08/17 05:00:29;;;;;;;;;3.33;3.33;;;;;;;;5074957;28;45430;-72
2022/08/17 05:02:54;;;;;;;;;5.00;5.00;;;;;;;;5075099;27;45386;-72
2022/08/17 05:05:21;;;;;;;;;4.33;4.33;;;;;;;;5075462;28;45549;-71
2022/08/17 05:07:46;;;;;;;;;4.00;4.00;;;;;;;;5075520;28;46324;-72
2022/08/17 05:10:11;;;;;;;;;5.33;5.00;;;;;;;;5075251;28;45374;-72
2022/08/17 05:12:37;;;;;;;;;7.00;5.00;;;;;;;;5075002;27;45500;-72
2022/08/17 05:15:02;;;;;;;;;5.00;5.00;;;;;;;;5075348;27;45356;-72
2022/08/17 05:17:27;;;;;;;;;6.33;5.67;;;;;;;;5074844;28;45338;-72
2022/08/17 05:19:52;;;;;;;;;4.67;4.67;;;;;;;;5075406;28;45503;-71
2022/08/17 05:22:17;;;;;;;;;6.00;6.00;;;;;;;;5078422;27;45507;-71
2022/08/17 05:24:43;;;;;;;;;5.00;5.00;;;;;;;;5079053;27;45352;-71
2022/08/17 05:27:08;;;;;;;;;3.00;3.00;;;;;;;;5078484;27;45482;-72
2022/08/17 05:29:33;;;;;;;;;5.00;5.00;;;;;;;;5078667;27;45363;-71
2022/08/17 05:32:06;;;;;;;;;4.33;4.33;;;;;;;;5078462;27;45254;-71
2022/08/17 05:34:31;;;;;;;;;4.67;4.33;;;;;;;;5078787;27;45414;-72
2022/08/17 05:36:56;;;;;;;;;5.67;5.67;;;;;;;;5074064;27;45450;-72
2022/08/17 05:39:21;;;;;;;;;5.67;5.67;;;;;;;;5078623;27;45477;-72
2022/08/17 05:41:47;;;;;;;;;4.67;4.67;;;;;;;;5078885;28;45419;-71
2022/08/17 05:44:12;;;;;;;;;5.00;5.00;;;;;;;;5078285;27;45419;-71
2022/08/17 05:46:40;;;;;;;;;3.67;3.67;;;;;;;;5078333;27;46978;-71
2022/08/17 05:49:09;;;;;;;;;4.67;4.67;;;;;;;;5078405;27;45303;-72
2022/08/17 05:51:41;;;;;;;;;5.00;5.00;;;;;;;;5078141;27;45390;-71
2022/08/17 05:54:06;;;;;;;;;4.00;4.00;;;;;;;;5078030;27;45392;-71
2022/08/17 05:56:31;;;;;;;;;4.33;4.33;;;;;;;;5077959;27;46163;-71
2022/08/17 05:59:17;;;;;;;;;5.33;5.33;;;;;;;;5078124;27;45312;-71
2022/08/17 06:01:54;;;;;;;;;3.33;3.33;;;;;;;;5026314;28;45339;-72
2022/08/17 06:04:26;;;;;;;;;5.00;5.00;;;;;;;;5055522;28;45562;-72
2022/08/17 06:06:58;;;;;;;;;4.67;4.67;;;;;;;;5055012;28;47554;-71
2022/08/17 06:09:44;;;;;;;;;2.33;2.33;;;;;;;;5038294;28;45433;-71
2022/08/17 06:12:20;;;;;;;;;4.33;4.33;;;;;;;;5055275;28;45336;-71
2022/08/17 06:15:06;;;;;;;;;6.33;5.00;;;;;;;;5055082;28;45369;-72
2022/08/17 06:17:31;;;;;;;;;6.00;6.00;;;;;;;;5054906;28;45607;-72
2022/08/17 06:19:59;;;;;;;;;4.33;4.33;;;;;;;;5055457;28;45458;-72
2022/08/17 06:22:30;;;;;;;;;4.00;4.00;;;;;;;;5055143;28;45439;-71
2022/08/17 06:24:59;;;;;;;;;5.00;5.00;;;;;;;;5055173;28;45399;-71
2022/08/17 06:27:25;;;;;;;;;3.67;3.67;;;;;;;;5054695;28;46536;-71
2022/08/17 06:29:50;;;;;;;;;7.00;7.00;;;;;;;;5054909;28;45407;-71
2022/08/17 06:32:16;;;;;;;;;5.00;5.00;;;;;;;;5055015;28;45496;-73
2022/08/17 06:34:42;;;;;;;;;5.33;5.33;;;;;;;;5055182;28;45352;-74
2022/08/17 06:37:08;;;;;;;;;9.50;9.50;;;;;;;;5054578;28;46229;-72
2022/08/17 06:39:36;;;;;;;;;13.00;13.00;;;;;;;;5080155;27;45476;-71
2022/08/17 06:42:10;;;;;;;;;14.00;11.33;;;;;;;;5098047;27;45288;-72
2022/08/17 06:44:39;;;;;;;;;12.00;12.00;;;;;;;;5097889;27;45653;-71
2022/08/17 06:47:11;;;;;;;;;12.00;12.00;;;;;;;;5097329;27;47439;-71
2022/08/17 06:49:45;;;;;;;;;11.00;11.00;;;;;;;;5097464;27;45623;-71
2022/08/17 06:52:11;;;;;;;;;13.00;12.50;;;;;;;;5098118;27;45214;-71
2022/08/17 06:54:44;;;;;;;;;10.50;10.25;;;;;;;;5097857;27;45426;-71
2022/08/17 06:57:09;;;;;;;;;13.67;11.00;;;;;;;;5097438;27;47349;-71
2022/08/17 06:59:43;;;;;;;;;8.00;8.00;;;;;;;;5097512;27;45401;-71
2022/08/17 07:02:12;;;;;;;;;11.75;10.50;;;;;;;;5088423;27;45319;-72
2022/08/17 07:04:38;;;;;;;;;9.00;9.00;;;;;;;;5077095;27;45280;-73
2022/08/17 07:09:55;;;;;;;;;8.00;7.00;;;;;;;;5077130;27;45288;-75
2022/08/17 07:12:25;;;;;;;;;10.00;9.00;;;;;;;;5076784;27;45400;-75
2022/08/17 07:15:16;;;;;;;;;6.00;6.00;;;;;;;;5071146;28;46455;-75
2022/08/17 07:17:43;;;;;;;;;8.33;7.00;;;;;;;;5064837;27;46435;-76
2022/08/17 07:20:10;;;;;;;;;9.33;9.33;;;;;;;;5077096;27;45322;-75
2022/08/17 07:22:45;;;;;;;;;7.67;7.33;;;;;;;;5077005;27;45344;-76
2022/08/17 07:25:12;;;;;;;;;6.33;6.33;;;;;;;;5076799;27;45442;-76
2022/08/17 07:27:38;;;;;;;;;10.33;9.00;;;;;;;;5076304;27;46281;-75
2022/08/17 07:30:04;;;;;;;;;8.00;8.00;;;;;;;;5077133;28;45463;-75
2022/08/17 07:32:41;;;;;;;;;8.00;8.00;;;;;;;;5076547;27;45359;-74
2022/08/17 07:35:16;;;;;;;;;9.00;7.67;;;;;;;;5076864;27;45373;-75
2022/08/17 07:37:51;;;;;;;;;8.00;7.67;;;;;;;;5076501;27;46250;-75
2022/08/17 07:40:17;;;;;;;;;8.00;7.33;;;;;;;;5076456;27;45410;-74
2022/08/17 07:42:58;;;;;;;;;8.33;8.00;;;;;;;;5076629;27;45451;-76
2022/08/17 07:48:18;;;;;;;;;5.33;3.67;;;;;;;;5076372;27;45851;-76
2022/08/17 07:50:44;;;;;;;;;8.67;7.00;;;;;;;;5076333;27;45260;-77
2022/08/17 07:53:18;;;;;;;;;11.00;8.67;;;;;;;;5076650;27;45451;-77
2022/08/17 07:55:44;;;;;;;;;6.00;6.00;;;;;;;;5076441;28;45308;-76
2022/08/17 07:58:14;;;;;;;;;7.00;7.00;;;;;;;;5076072;27;45320;-76
2022/08/17 08:00:39;;;;;;;;;6.00;6.00;;;;;;;;5076392;28;45494;-76
2022/08/17 08:03:22;;;;;;;;;10.33;7.33;;;;;;;;5092403;27;45353;-76
2022/08/17 08:05:53;;;;;;;;;7.67;7.67;;;;;;;;5097150;27;45544;-75
2022/08/17 08:08:23;;;;;;;;;11.50;8.50;;;;;;;;5096535;27;46007;-77
2022/08/17 08:10:59;;;;;;;;;9.00;8.00;;;;;;;;5096287;27;45298;-76
2022/08/17 08:13:27;;;;;;;;;9.00;8.33;;;;;;;;5096794;27;45460;-77
2022/08/17 08:15:54;;;;;;;;;10.00;10.00;;;;;;;;5096564;27;45520;-74
2022/08/17 08:18:31;;;;;;;;;12.33;9.00;;;;;;;;5096624;27;45762;-78
2022/08/17 08:21:00;;;;;;;;;9.67;8.00;;;;;;;;5096652;27;45353;-74
2022/08/17 08:23:32;;;;;;;;;10.00;9.00;;;;;;;;5096349;27;45409;-77
2022/08/17 08:26:08;;;;;;;;;7.00;7.00;;;;;;;;5096408;27;45279;-77
2022/08/17 08:28:39;;;;;;;;;7.67;7.00;;;;;;;;5096169;27;46085;-76
2022/08/17 08:31:13;;;;;;;;;9.00;8.33;;;;;;;;5095951;27;45523;-77
2022/08/17 08:33:41;;;;;;;;;9.00;8.67;;;;;;;;5096447;27;45290;-77
2022/08/17 08:36:13;;;;;;;;;6.33;6.33;;;;;;;;5095988;27;45513;-75
2022/08/17 08:38:48;;;;;;;;;10.33;8.33;;;;;;;;5095694;27;46141;-76
2022/08/17 08:41:35;;;;;;;;;9.33;9.33;;;;;;;;5096550;27;45418;-76
2022/08/17 08:44:06;;;;;;;;;9.33;8.00;;;;;;;;5096799;27;45388;-75
2022/08/17 08:46:44;;;;;;;;;8.00;8.00;;;;;;;;5096162;27;45464;-76
2022/08/17 08:49:35;;;;;;;;;9.33;7.67;;;;;;;;5087818;27;45266;-76
2022/08/17 08:52:02;;;;;;;;;7.67;7.33;;;;;;;;5083671;27;45470;-76
2022/08/17 08:54:36;;;;;;;;;6.33;6.33;;;;;;;;5095877;27;45410;-75
2022/08/17 08:57:23;;;;;;;;;7.00;7.00;;;;;;;;5098706;27;45442;-76
2022/08/17 09:00:09;;;;;;;;;9.67;9.67;;;;;;;;5099495;27;46047;-76
2022/08/17 09:02:40;;;;;;;;;9.67;8.00;;;;;;;;5086912;27;45476;-77
2022/08/17 09:05:15;;;;;;;;;8.33;8.33;;;;;;;;5079156;27;45482;-76
2022/08/17 09:07:47;;;;;;;;;7.33;7.33;;;;;;;;5078924;27;45444;-75
2022/08/17 09:10:15;;;;;;;;;7.67;7.67;;;;;;;;5078971;27;46411;-76
2022/08/17 09:12:56;;;;;;;;;8.67;8.67;;;;;;;;5078849;27;45312;-75
2022/08/17 09:15:21;;;;;;;;;7.75;7.75;;;;;;;;5079231;27;45338;-76
2022/08/17 09:18:03;;;;;;;;;9.33;6.33;;;;;;;;5079213;27;45392;-76
2022/08/17 09:20:42;;;;;;;;;9.00;9.00;;;;;;;;5078696;27;47394;-76
2022/08/17 09:23:11;;;;;;;;;8.33;7.00;;;;;;;;5078456;27;45415;-76
2022/08/17 09:25:49;;;;;;;;;8.00;8.00;;;;;;;;5078731;27;45555;-76
2022/08/17 09:28:22;;;;;;;;;9.00;8.00;;;;;;;;5078590;27;45501;-76
2022/08/17 09:30:53;;;;;;;;;8.67;8.67;;;;;;;;5078757;27;46879;-75
2022/08/17 09:33:25;;;;;;;;;5.33;5.33;;;;;;;;5078988;27;45770;-76
2022/08/17 09:35:55;;;;;;;;;10.00;10.00;;;;;;;;5078480;27;45421;-76
2022/08/17 09:38:21;;;;;;;;;8.00;7.67;;;;;;;;5078597;27;45372;-76
2022/08/17 09:41:09;;;;;;;;;6.67;6.67;;;;;;;;5078620;27;46102;-76
2022/08/17 09:43:59;;;;;;;;;9.33;7.67;;;;;;;;5060721;27;45354;-76
2022/08/17 09:46:39;;;;;;;;;7.00;7.00;;;;;;;;5060289;28;45442;-76
2022/08/17 09:49:04;;;;;;;;;8.00;8.00;;;;;;;;5078792;27;45403;-75
2022/08/17 09:51:42;;;;;;;;;7.33;6.67;;;;;;;;5078244;27;45465;-76
2022/08/17 09:54:12;;;;;;;;;8.33;8.00;;;;;;;;5078692;27;45307;-76
2022/08/17 09:56:51;;;;;;;;;7.33;7.33;;;;;;;;5078371;27;45447;-76
2022/08/17 09:59:19;;;;;;;;;7.75;6.00;;;;;;;;5078385;28;45351;-75
2022/08/17 10:01:47;;;;;;;;;6.67;6.67;;;;;;;;5077793;27;46435;-76
2022/08/17 10:04:36;;;;;;;;;7.67;6.33;;;;;;;;5078425;27;45418;-77
2022/08/17 10:07:13;;;;;;;;;7.00;7.00;;;;;;;;5077287;27;45774;-75
2022/08/17 10:09:51;;;;;;;;;7.00;7.00;;;;;;;;5078420;27;45523;-76
2022/08/17 10:12:30;;;;;;;;;9.33;8.67;;;;;;;;5077828;27;46241;-77
2022/08/17 10:14:56;;;;;;;;;5.33;5.33;;;;;;;;5072055;27;45285;-77
2022/08/17 10:17:30;;;;;;;;;7.75;7.50;;;;;;;;5078633;27;45450;-76
2022/08/17 10:20:10;;;;;;;;;8.33;8.33;;;;;;;;5078174;27;45246;-76
2022/08/17 10:28:09;;;;;;;;;9.67;7.67;;;;;;;;5078149;28;45374;-76
2022/08/17 10:30:36;;;;;;;;;7.00;7.00;;;;;;;;5077903;27;45411;-75
2022/08/17 10:33:05;;;;;;;;;8.50;8.50;;;;;;;;5059478;28;46669;-75
2022/08/17 10:35:33;;;;;;;;;9.75;8.25;;;;;;;;5075930;27;45355;-76
2022/08/17 10:38:05;;;;;;;;;9.00;9.00;;;;;;;;5077681;27;45281;-72
2022/08/17 10:40:33;;;;;;;;;16.50;16.25;;;;;;;;5076086;27;45528;-72
2022/08/17 10:43:01;;;;;;;;;17.00;16.50;;;;;;;;5076054;27;46144;-73
2022/08/17 10:45:35;;;;;;;;;18.00;17.00;;;;;;;;5075993;27;45452;-72
2022/08/17 10:48:20;;;;;;;;;18.75;18.75;;;;;;;;5075994;27;45386;-72
2022/08/17 10:50:56;;;;;;;;;18.75;18.50;;;;;;;;5075705;27;45399;-72
2022/08/17 10:53:27;;;;;;;;;19.00;18.00;;;;;;;;5057544;28;46983;-72
2022/08/17 10:56:11;;;;;;;;;19.50;19.50;;;;;;;;5076968;27;45367;-72
2022/08/17 10:58:37;;;;;;;;;15.25;15.25;;;;;;;;5063113;27;45435;-72
2022/08/17 11:01:03;;;;;;;;;20.50;16.50;;;;;;;;5058681;28;45366;-71
2022/08/17 11:03:31;;;;;;;;;19.75;15.00;;;;;;;;5073698;27;46926;-71
2022/08/17 11:06:05;;;;;;;;;18.50;17.00;;;;;;;;5076568;27;45352;-72
2022/08/17 11:08:38;;;;;;;;;17.50;16.75;;;;;;;;5058448;28;45399;-72
2022/08/17 11:11:22;;;;;;;;;16.00;15.25;;;;;;;;5076792;27;45387;-72
2022/08/17 11:14:07;;;;;;;;;19.75;18.50;;;;;;;;5075980;27;47167;-72
2022/08/17 11:16:36;;;;;;;;;17.50;16.25;;;;;;;;5076798;27;45300;-72
2022/08/17 11:19:13;;;;;;;;;18.00;16.75;;;;;;;;5061337;28;45451;-72
2022/08/17 11:21:50;;;;;;;;;17.75;17.25;;;;;;;;5076622;27;45382;-72
2022/08/17 11:24:18;;;;;;;;;17.50;17.25;;;;;;;;5063517;27;47373;-73
2022/08/17 11:27:03;;;;;;;;;20.25;18.00;;;;;;;;5061576;27;45281;-73
2022/08/17 11:29:32;;;;;;;;;19.00;16.00;;;;;;;;5081070;27;45400;-72
2022/08/17 11:32:06;;;;;;;;;19.25;18.00;;;;;;;;5092749;27;45279;-71
2022/08/17 11:34:33;;;;;;;;;18.00;18.00;;;;;;;;5084323;27;47305;-72
2022/08/17 11:37:05;;;;;;;;;21.25;19.75;;;;;;;;5083144;27;45436;-72
2022/08/17 11:39:33;;;;;;;;;22.00;20.50;;;;;;;;5076102;28;45258;-72
2022/08/17 11:41:58;;;;;;;;;16.25;15.25;;;;;;;;5057731;28;45448;-72
2022/08/17 11:44:36;;;;;;;;;16.20;16.20;;;;;;;;5057841;27;46219;-72
2022/08/17 11:53:00;;;;;;;;;25.50;23.25;;;;;;;;5095395;27;45322;-71
2022/08/17 11:55:33;;;;;;;;;17.50;17.50;;;;;;;;5093443;27;47084;-71
2022/08/17 11:58:00;;;;;;;;;21.50;20.50;;;;;;;;5070921;27;45692;-72
2022/08/17 12:00:43;;;;;;;;;23.25;22.25;;;;;;;;5077121;27;45524;-72
2022/08/17 12:03:21;;;;;;;;;19.50;19.00;;;;;;;;5094400;27;45512;-72
2022/08/17 12:05:46;;;;;;;;;21.00;18.50;;;;;;;;5096174;27;46588;-72
2022/08/17 12:08:20;;;;;;;;;15.50;14.00;;;;;;;;5075954;27;45492;-69
2022/08/17 12:10:59;;;;;;;;;22.75;18.25;;;;;;;;5079168;27;45332;-72
2022/08/17 12:13:25;;;;;;;;;17.50;17.25;;;;;;;;5075293;27;45528;-72
2022/08/17 12:15:51;;;;;;;;;24.25;18.25;;;;;;;;5074405;28;46358;-72
2022/08/17 12:18:21;;;;;;;;;20.75;19.75;;;;;;;;5066814;27;45459;-72
2022/08/17 12:20:59;;;;;;;;;20.00;20.00;;;;;;;;5075410;27;45518;-72
2022/08/17 12:23:34;;;;;;;;;22.00;19.50;;;;;;;;5075793;28;45428;-72
2022/08/17 12:26:19;;;;;;;;;16.50;16.50;;;;;;;;5061884;27;47291;-72
2022/08/17 12:28:46;;;;;;;;;17.75;17.25;;;;;;;;5075114;27;45285;-72
2022/08/17 12:31:20;;;;;;;;;15.25;14.75;;;;;;;;5075289;28;45428;-72
2022/08/17 12:33:46;;;;;;;;;14.50;14.25;;;;;;;;5075767;27;45469;-72
2022/08/17 12:36:13;;;;;;;;;17.00;14.75;;;;;;;;5075539;27;46153;-72
2022/08/17 12:38:40;;;;;;;;;15.25;13.50;;;;;;;;5075621;27;45699;-72
2022/08/17 12:41:25;;;;;;;;;14.75;13.50;;;;;;;;5075296;27;45585;-72
2022/08/17 12:44:00;;;;;;;;;16.75;14.75;;;;;;;;5075470;27;45426;-72
2022/08/17 12:46:26;;;;;;;;;16.25;16.00;;;;;;;;5074855;27;45593;-72
2022/08/17 12:48:51;;;;;;;;;15.75;15.75;;;;;;;;5075344;27;45303;-72
2022/08/17 12:51:16;;;;;;;;;13.50;13.50;;;;;;;;5075646;27;45407;-72
2022/08/17 12:53:48;;;;;;;;;14.50;14.25;;;;;;;;5074859;27;45539;-72
2022/08/17 12:56:14;;;;;;;;;11.00;11.00;;;;;;;;5075377;27;46215;-72
2022/08/17 12:58:46;;;;;;;;;17.00;17.00;;;;;;;;5075099;27;45360;-72
2022/08/17 13:01:15;;;;;;;;;13.50;13.50;;;;;;;;5075152;27;45366;-72
2022/08/17 13:03:44;;;;;;;;;13.25;13.25;;;;;;;;5075204;27;45582;-72
2022/08/17 13:06:13;;;;;;;;;14.50;13.25;;;;;;;;5074975;28;46203;-71
2022/08/17 13:08:38;;;;;;;;;15.25;13.00;;;;;;;;5074970;27;45425;-72
2022/08/17 13:11:03;;;;;;;;;15.25;14.25;;;;;;;;5075445;27;45558;-71
2022/08/17 13:13:31;;;;;;;;;15.25;14.75;;;;;;;;5074803;27;45443;-72
2022/08/17 13:15:58;;;;;;;;;14.00;13.75;;;;;;;;5074988;28;47249;-72
2022/08/17 13:18:35;;;;;;;;;14.75;13.00;;;;;;;;5074967;27;45492;-72
2022/08/17 13:21:01;;;;;;;;;14.50;12.50;;;;;;;;5075308;28;45492;-71
2022/08/17 13:23:28;;;;;;;;;14.25;13.25;;;;;;;;5074891;28;45399;-72
2022/08/17 13:25:59;;;;;;;;;16.25;15.75;;;;;;;;5075192;27;45403;-71
2022/08/17 13:28:26;;;;;;;;;14.50;11.50;;;;;;;;5074676;27;45467;-72
2022/08/17 13:30:52;;;;;;;;;13.75;13.75;;;;;;;;5074762;28;45381;-71
2022/08/17 13:33:24;;;;;;;;;10.00;9.75;;;;;;;;5074659;27;45389;-72
2022/08/17 13:35:50;;;;;;;;;13.75;12.75;;;;;;;;5074624;28;45335;-72
2022/08/17 13:38:36;;;;;;;;;14.00;14.00;;;;;;;;5074432;28;45440;-71
2022/08/17 13:41:02;;;;;;;;;14.50;14.50;;;;;;;;5061138;28;45518;-72
2022/08/17 13:43:38;;;;;;;;;12.75;10.75;;;;;;;;5077780;27;45478;-71
2022/08/17 13:46:30;;;;;;;;;13.50;13.50;;;;;;;;5077789;27;47078;-72
2022/08/17 13:49:13;;;;;;;;;10.25;10.25;;;;;;;;5074702;27;45403;-71
2022/08/17 13:51:43;;;;;;;;;14.75;13.25;;;;;;;;5078429;27;45336;-72
2022/08/17 13:54:18;;;;;;;;;14.75;13.25;;;;;;;;5077995;27;45526;-72
2022/08/17 13:56:49;;;;;;;;;14.75;12.75;;;;;;;;5078152;27;46920;-71
2022/08/17 13:59:23;;;;;;;;;13.00;12.50;;;;;;;;5077771;27;45391;-72
2022/08/17 14:01:48;;;;;;;;;9.00;9.00;;;;;;;;5078162;27;45296;-72
2022/08/17 14:04:15;;;;;;;;;13.75;12.75;;;;;;;;5077709;27;45271;-72
2022/08/17 14:06:51;;;;;;;;;11.50;11.50;;;;;;;;5078248;27;46138;-72
2022/08/17 14:09:17;;;;;;;;;11.00;11.00;;;;;;;;5077824;27;45569;-71
2022/08/17 14:11:43;;;;;;;;;14.25;13.25;;;;;;;;5077344;27;45399;-72
2022/08/17 14:14:10;;;;;;;;;13.00;13.00;;;;;;;;5078031;27;45257;-72
2022/08/17 14:16:40;;;;;;;;;12.50;11.75;;;;;;;;5077545;27;46279;-72
2022/08/17 14:19:08;;;;;;;;;10.50;10.50;;;;;;;;5077510;27;45430;-72
2022/08/17 14:21:34;;;;;;;;;9.25;9.25;;;;;;;;5078070;27;45401;-71
2022/08/17 14:23:59;;;;;;;;;12.00;12.00;;;;;;;;5059802;28;45370;-71
2022/08/17 14:26:24;;;;;;;;;12.25;12.25;;;;;;;;5077005;27;45462;-71
2022/08/17 14:28:50;;;;;;;;;11.50;11.50;;;;;;;;5077465;27;45518;-72
2022/08/17 14:31:15;;;;;;;;;10.75;10.75;;;;;;;;5077634;28;45443;-71
2022/08/17 14:33:40;;;;;;;;;11.75;11.00;;;;;;;;5077565;27;45376;-71
2022/08/17 14:36:05;;;;;;;;;10.00;10.00;;;;;;;;5077653;28;46299;-72
2022/08/17 14:38:31;;;;;;;;;14.75;13.75;;;;;;;;5077153;27;45395;-72
2022/08/17 14:40:56;;;;;;;;;12.00;10.75;;;;;;;;5059103;28;45481;-71
2022/08/17 14:43:21;;;;;;;;;11.50;11.50;;;;;;;;5077550;28;45466;-72
2022/08/17 14:45:47;;;;;;;;;11.00;11.00;;;;;;;;5076478;27;46990;-71
2022/08/17 14:48:12;;;;;;;;;11.25;11.25;;;;;;;;5077346;28;45385;-71
2022/08/17 14:50:39;;;;;;;;;10.00;10.00;;;;;;;;5077533;27;45376;-72
2022/08/17 14:53:05;;;;;;;;;9.00;9.00;;;;;;;;5076347;28;45332;-72
2022/08/17 14:55:31;;;;;;;;;9.50;9.50;;;;;;;;5076980;27;46009;-72
2022/08/17 14:57:56;;;;;;;;;12.00;11.33;;;;;;;;5077268;27;45353;-71
2022/08/17 15:00:21;;;;;;;;;11.25;11.25;;;;;;;;5077587;27;45402;-72
2022/08/17 15:02:51;;;;;;;;;11.00;10.00;;;;;;;;5077173;27;45429;-71
2022/08/17 15:05:16;;;;;;;;;8.67;8.67;;;;;;;;5077193;27;46992;-71
2022/08/17 15:07:43;;;;;;;;;7.25;7.00;;;;;;;;5076860;27;45299;-71
2022/08/17 15:10:09;;;;;;;;;10.33;10.00;;;;;;;;5077141;27;45374;-71
2022/08/17 15:12:34;;;;;;;;;10.25;10.25;;;;;;;;5076929;27;45259;-72
2022/08/17 15:15:00;;;;;;;;;10.67;10.67;;;;;;;;5076675;27;45398;-71
2022/08/17 15:17:25;;;;;;;;;9.00;9.00;;;;;;;;5076955;27;45289;-71